createdAt,value
2022-10-17T00:02:20.709Z,5.00
2022-10-17T00:07:13.261Z,5.97
2022-10-17T00:12:06.034Z,5.30
2022-10-17T00:16:58.501Z,5.13
2022-10-17T00:21:52.373Z,4.30
2022-10-17T00:26:44.903Z,4.90
2022-10-17T00:31:37.456Z,5.33
2022-10-17T00:36:30.836Z,4.83
2022-10-17T00:41:25.696Z,5.03
2022-10-17T00:46:18.424Z,4.80
2022-10-17T00:51:11.025Z,5.47
2022-10-17T00:56:03.610Z,4.83
2022-10-17T01:00:57.552Z,5.40
2022-10-17T01:05:50.117Z,5.63
2022-10-17T01:10:51.046Z,6.37
2022-10-17T01:15:51.587Z,7.20
2022-10-17T01:21:02.960Z,7.67
2022-10-17T01:26:01.818Z,8.33
2022-10-17T01:31:00.310Z,9.10
2022-10-17T01:35:56.430Z,8.53
2022-10-17T01:40:51.991Z,11.40
2022-10-17T01:45:48.388Z,11.50
2022-10-17T01:50:44.019Z,13.67
2022-10-17T01:55:38.542Z,14.23
2022-10-17T02:00:31.969Z,12.90
2022-10-17T02:05:27.377Z,8.43
2022-10-17T02:10:26.834Z,8.20
2022-10-17T02:15:43.377Z,9.50
2022-10-17T02:20:38.455Z,7.70
2022-10-17T02:25:36.736Z,8.37
2022-10-17T02:30:34.273Z,6.00
2022-10-17T02:35:28.885Z,6.07
2022-10-17T02:40:22.865Z,6.77
2022-10-17T02:45:19.343Z,6.10
2022-10-17T02:50:12.141Z,8.33
2022-10-17T02:55:10.758Z,8.47
2022-10-17T03:00:06.196Z,9.20
2022-10-17T03:05:00.103Z,9.40
2022-10-17T03:09:52.662Z,9.90
2022-10-17T03:14:45.222Z,9.37
2022-10-17T03:19:37.765Z,12.10
2022-10-17T03:24:31.718Z,12.00
2022-10-17T03:29:24.399Z,13.27
2022-10-17T03:34:18.726Z,10.97
2022-10-17T03:39:11.771Z,8.80
2022-10-17T03:44:05.968Z,9.80
2022-10-17T03:48:58.558Z,8.10
2022-10-17T03:53:51.258Z,8.00
2022-10-17T03:58:44.208Z,7.00
2022-10-17T04:03:39.136Z,8.00
2022-10-17T04:08:31.737Z,8.00
2022-10-17T04:13:34.445Z,8.70
2022-10-17T04:18:27.491Z,9.40
2022-10-17T04:23:21.567Z,9.20
2022-10-17T04:28:16.603Z,9.83
2022-10-17T04:33:09.342Z,11.63
2022-10-17T04:38:01.962Z,12.20
2022-10-17T04:42:56.275Z,10.83
2022-10-17T04:47:56.045Z,10.90
2022-10-17T04:52:48.732Z,11.97
2022-10-17T04:57:41.264Z,12.17
2022-10-17T05:02:46.864Z,14.73
2022-10-17T05:07:40.743Z,14.17
2022-10-17T05:12:38.271Z,13.50
2022-10-17T05:17:31.013Z,15.47
2022-10-17T05:22:24.954Z,13.63
2022-10-17T05:27:17.800Z,13.97
2022-10-17T05:32:10.663Z,14.63
2022-10-17T05:37:03.874Z,24.57
2022-10-17T05:41:59.510Z,20.03
2022-10-17T05:46:52.798Z,21.70
2022-10-17T05:51:45.575Z,12.50
2022-10-17T05:56:38.173Z,11.00
2022-10-17T06:01:33.023Z,10.60
2022-10-17T06:06:26.005Z,12.03
2022-10-17T06:11:18.782Z,11.23
2022-10-17T06:16:11.595Z,15.70
2022-10-17T06:21:06.391Z,12.90
2022-10-17T06:26:00.577Z,11.27
2022-10-17T06:30:54.702Z,11.07
2022-10-17T06:35:51.706Z,9.23
2022-10-17T06:40:45.990Z,7.50
2022-10-17T06:45:39.273Z,6.33
2022-10-17T06:50:44.301Z,6.00
2022-10-17T06:56:02.847Z,6.37
2022-10-17T07:01:12.335Z,6.30
2022-10-17T07:06:06.056Z,6.40
2022-10-17T07:11:00.368Z,5.90
2022-10-17T07:15:53.158Z,5.23
2022-10-17T07:20:53.402Z,5.27
2022-10-17T07:25:46.074Z,5.33
2022-10-17T07:30:40.287Z,4.63
2022-10-17T07:35:40.674Z,4.57
2022-10-17T07:40:33.362Z,4.90
2022-10-17T07:45:27.637Z,5.10
2022-10-17T07:50:22.111Z,4.80
2022-10-17T07:55:14.874Z,5.17
2022-10-17T08:00:08.224Z,5.60
2022-10-17T08:05:05.267Z,5.73
2022-10-17T08:09:59.333Z,6.20
2022-10-17T08:14:51.953Z,6.87
2022-10-17T08:19:44.532Z,5.57
2022-10-17T08:24:37.058Z,5.60
2022-10-17T08:29:32.769Z,5.77
2022-10-17T08:34:25.287Z,5.13
2022-10-17T08:39:17.853Z,5.07
2022-10-17T08:44:15.903Z,5.30
2022-10-17T08:49:13.315Z,4.37
2022-10-17T08:54:10.417Z,4.40
2022-10-17T08:59:05.787Z,4.20
2022-10-17T09:04:05.832Z,3.90
2022-10-17T09:09:04.400Z,4.13
2022-10-17T09:14:05.374Z,3.73
2022-10-17T09:19:01.055Z,3.80
2022-10-17T09:24:03.783Z,4.03
2022-10-17T09:29:04.259Z,3.90
2022-10-17T09:33:58.224Z,4.10
2022-10-17T09:38:53.064Z,3.87
2022-10-17T09:43:47.720Z,3.93
2022-10-17T09:48:47.721Z,4.00
2022-10-17T09:53:42.245Z,4.07
2022-10-17T09:58:41.065Z,3.80
2022-10-17T10:03:33.738Z,4.10
2022-10-17T10:08:29.090Z,4.20
2022-10-17T10:13:21.652Z,4.67
2022-10-17T10:18:32.017Z,4.40
2022-10-17T10:23:24.857Z,4.33
2022-10-17T10:28:19.462Z,3.80
2022-10-17T10:33:12.421Z,4.03
2022-10-17T10:38:09.556Z,3.57
2022-10-17T10:43:05.492Z,3.27
2022-10-17T10:48:00.536Z,3.67
2022-10-17T10:52:56.317Z,3.50
2022-10-17T10:57:50.317Z,4.00
2022-10-17T11:02:46.452Z,3.73
2022-10-17T11:07:42.140Z,3.67
2022-10-17T11:12:36.458Z,3.47
2022-10-17T11:17:32.667Z,3.50
2022-10-17T11:22:29.408Z,3.10
2022-10-17T11:27:23.897Z,3.20
2022-10-17T11:32:20.608Z,3.00
2022-10-17T11:37:15.574Z,3.50
2022-10-17T11:42:11.230Z,3.30
2022-10-17T11:47:06.972Z,3.97
2022-10-17T11:52:03.378Z,3.37
2022-10-17T11:57:03.862Z,3.30
2022-10-17T12:01:58.520Z,3.20
2022-10-17T12:07:00.145Z,3.90
2022-10-17T12:11:54.850Z,3.40
2022-10-17T12:16:47.530Z,3.17
2022-10-17T12:26:57.209Z,2.90
2022-10-17T12:31:49.814Z,3.10
2022-10-17T12:36:42.345Z,3.03
2022-10-17T12:41:49.837Z,2.70
2022-10-17T12:46:48.517Z,2.90
2022-10-17T12:51:59.818Z,3.00
2022-10-17T12:56:52.422Z,2.80
2022-10-17T13:01:46.461Z,2.73
2022-10-17T13:06:46.089Z,2.80
2022-10-17T13:11:40.400Z,2.90
2022-10-17T13:16:34.310Z,2.57
2022-10-17T13:21:27.308Z,2.80
2022-10-17T13:26:22.140Z,3.00
2022-10-17T13:31:28.757Z,2.87
2022-10-17T13:36:21.379Z,3.07
2022-10-17T13:41:35.999Z,2.90
2022-10-17T13:46:39.173Z,2.90
2022-10-17T13:51:32.255Z,3.33
2022-10-17T13:56:29.679Z,3.13
2022-10-17T14:01:22.681Z,3.10
2022-10-17T14:06:18.493Z,2.83
2022-10-17T14:11:15.307Z,3.00
2022-10-17T14:16:09.584Z,2.67
2022-10-17T14:26:19.665Z,2.90
2022-10-17T14:31:33.217Z,2.83
2022-10-17T14:36:36.292Z,3.20
2022-10-17T14:41:42.310Z,2.97
2022-10-17T14:46:36.198Z,2.67
2022-10-17T14:51:32.566Z,3.37
2022-10-17T14:56:40.397Z,3.17
2022-10-17T15:01:33.855Z,2.90
2022-10-17T15:06:29.031Z,2.83
2022-10-17T15:11:21.612Z,3.10
2022-10-17T15:16:16.816Z,2.80
2022-10-17T15:21:25.656Z,2.80
2022-10-17T15:26:20.341Z,3.20
2022-10-17T15:31:14.045Z,3.20
2022-10-17T15:36:17.970Z,3.40
2022-10-17T15:41:10.754Z,3.00
2022-10-17T15:46:03.736Z,3.37
2022-10-17T15:50:56.318Z,3.27
2022-10-17T15:55:51.066Z,10.37
2022-10-17T16:00:43.683Z,4.10
2022-10-17T16:05:36.301Z,8.33
2022-10-17T16:10:29.671Z,10.57
2022-10-17T16:15:24.766Z,6.03
2022-10-17T16:20:17.530Z,4.57
2022-10-17T16:25:19.327Z,4.47
2022-10-17T16:30:12.030Z,5.77
2022-10-17T16:35:06.451Z,5.00
2022-10-17T16:39:58.958Z,4.83
2022-10-17T16:44:52.356Z,5.20
2022-10-17T16:49:45.448Z,5.30
2022-10-17T16:54:39.414Z,5.40
2022-10-17T16:59:31.996Z,5.73
2022-10-17T17:04:24.599Z,5.77
2022-10-17T17:09:17.211Z,5.80
2022-10-17T17:14:11.724Z,6.70
2022-10-17T17:19:05.413Z,6.43
2022-10-17T17:23:59.179Z,6.43
2022-10-17T17:28:53.298Z,5.70
2022-10-17T17:33:47.656Z,6.37
2022-10-17T17:38:41.260Z,6.13
2022-10-17T17:43:33.910Z,6.37
2022-10-17T17:48:26.421Z,5.60
2022-10-17T17:53:20.320Z,5.67
2022-10-17T17:58:12.941Z,5.33
2022-10-17T18:03:05.470Z,5.70
2022-10-17T18:07:57.972Z,5.60
2022-10-17T18:12:52.126Z,5.83
2022-10-17T18:17:44.613Z,5.90
2022-10-17T18:22:37.175Z,5.90
2022-10-17T18:27:29.665Z,5.60
2022-10-17T18:32:23.513Z,6.53
2022-10-17T18:37:16.008Z,5.27
2022-10-17T18:42:08.605Z,6.00
2022-10-17T18:47:03.936Z,5.73
2022-10-17T18:51:59.469Z,6.37
2022-10-17T18:56:53.148Z,6.23
2022-10-17T19:01:46.111Z,5.80
2022-10-17T19:06:38.932Z,5.90
2022-10-17T19:11:33.480Z,5.80
2022-10-17T19:16:26.839Z,5.70
2022-10-17T19:21:21.854Z,6.30
2022-10-17T19:26:14.999Z,6.87
2022-10-17T19:31:11.181Z,5.50
2022-10-17T19:36:06.691Z,5.67
2022-10-17T19:45:58.041Z,5.03
2022-10-17T19:50:52.804Z,5.33
2022-10-17T19:55:45.310Z,5.00
2022-10-17T20:00:37.834Z,5.00
2022-10-17T20:05:30.508Z,4.30
2022-10-17T20:10:25.466Z,4.97
2022-10-17T20:15:18.031Z,4.77
2022-10-17T20:20:11.228Z,5.37
2022-10-17T20:25:03.737Z,4.70
2022-10-17T20:30:01.704Z,4.10
2022-10-17T20:34:54.505Z,4.07
2022-10-17T20:39:51.806Z,4.20
2022-10-17T20:44:48.403Z,4.40
2022-10-17T20:49:42.399Z,3.97
2022-10-17T20:54:34.943Z,4.00
2022-10-17T20:59:28.107Z,4.57
2022-10-17T21:04:45.424Z,4.20
2022-10-17T21:09:34.501Z,4.17
2022-10-17T21:14:27.013Z,4.33
2022-10-17T21:19:19.637Z,4.47
2022-10-17T21:24:14.175Z,4.43
2022-10-17T21:29:08.349Z,4.63
2022-10-17T21:34:01.767Z,3.73
2022-10-17T21:38:55.465Z,4.00
2022-10-17T21:43:48.286Z,4.13
2022-10-17T21:48:42.373Z,4.90
2022-10-17T21:53:35.192Z,3.80
2022-10-17T21:58:28.072Z,4.00
2022-10-17T22:03:20.623Z,4.13
2022-10-17T22:08:14.672Z,4.37
2022-10-17T22:13:07.227Z,4.83
2022-10-17T22:17:59.728Z,4.10
2022-10-17T22:22:52.298Z,4.13
2022-10-17T22:27:46.168Z,4.43
2022-10-17T22:32:38.693Z,4.43
2022-10-17T22:37:31.379Z,4.37
2022-10-17T22:42:24.155Z,4.40
2022-10-17T22:47:18.002Z,4.90
2022-10-17T22:52:10.511Z,5.07
2022-10-17T22:57:03.009Z,5.10
2022-10-17T23:01:55.581Z,5.03
2022-10-17T23:06:49.445Z,5.70
2022-10-17T23:11:41.916Z,5.80
2022-10-17T23:16:34.387Z,5.50
2022-10-17T23:21:26.966Z,6.20
2022-10-17T23:26:20.793Z,5.80
2022-10-17T23:31:14.877Z,5.57
2022-10-17T23:36:07.893Z,5.60
2022-10-17T23:41:00.405Z,6.20
2022-10-17T23:45:54.256Z,5.73
2022-10-17T23:50:46.757Z,5.80
2022-10-17T23:55:39.263Z,6.27
